createdAt,value
2023-05-24T00:01:29.523Z,18.95
2023-05-24T00:04:01.115Z,19.08
2023-05-24T00:06:28.593Z,19.01
2023-05-24T00:08:56.698Z,19.01
2023-05-24T00:11:24.245Z,18.95
2023-05-24T00:13:51.672Z,19.03
2023-05-24T00:16:19.285Z,18.90
2023-05-24T00:18:48.472Z,18.97
2023-05-24T00:21:16.334Z,18.80
2023-05-24T00:23:44.464Z,18.73
2023-05-24T00:26:12.196Z,18.70
2023-05-24T00:28:39.704Z,18.77
2023-05-24T00:31:08.565Z,18.76
2023-05-24T00:33:36.097Z,18.60
2023-05-24T00:36:03.621Z,18.51
2023-05-24T00:38:33.585Z,18.53
2023-05-24T00:41:01.873Z,18.59
2023-05-24T00:43:29.874Z,18.55
2023-05-24T00:46:28.476Z,18.62
2023-05-24T00:48:56.562Z,18.55
2023-05-24T00:51:31.046Z,18.44
2023-05-24T00:53:58.904Z,18.34
2023-05-24T00:56:27.184Z,18.41
2023-05-24T00:58:57.817Z,18.42
2023-05-24T01:01:26.315Z,18.50
2023-05-24T01:03:54.820Z,18.38
2023-05-24T01:06:23.806Z,18.36
2023-05-24T01:09:12.371Z,18.47
2023-05-24T01:15:28.977Z,18.40
2023-05-24T01:18:13.211Z,18.40
2023-05-24T01:20:42.522Z,18.37
2023-05-24T01:23:46.404Z,18.34
2023-05-24T01:26:55.694Z,18.19
2023-05-24T01:29:24.129Z,18.24
2023-05-24T01:32:02.212Z,18.12
2023-05-24T01:34:30.434Z,18.15
2023-05-24T01:36:58.256Z,18.27
2023-05-24T01:39:29.040Z,18.17
2023-05-24T01:45:11.905Z,18.17
2023-05-24T01:48:06.180Z,18.14
2023-05-24T01:50:39.269Z,18.22
2023-05-24T01:53:14.331Z,18.26
2023-05-24T01:55:43.461Z,18.10
2023-05-24T01:58:13.221Z,18.10
2023-05-24T02:00:42.272Z,18.16
2023-05-24T02:03:10.498Z,18.03
2023-05-24T02:05:39.530Z,18.08
2023-05-24T02:08:07.205Z,17.91
2023-05-24T02:10:34.812Z,17.94
2023-05-24T02:13:05.034Z,18.03
2023-05-24T02:15:32.727Z,18.02
2023-05-24T02:18:01.656Z,18.02
2023-05-24T02:20:31.460Z,18.08
2023-05-24T02:23:00.286Z,18.12
2023-05-24T02:25:28.032Z,18.06
2023-05-24T02:28:00.161Z,18.27
2023-05-24T02:30:27.883Z,18.04
2023-05-24T02:36:23.919Z,18.17
2023-05-24T02:38:52.162Z,18.14
2023-05-24T02:41:20.481Z,17.98
2023-05-24T02:43:48.587Z,18.21
2023-05-24T02:46:17.812Z,18.15
2023-05-24T02:48:45.649Z,18.26
2023-05-24T02:51:12.983Z,18.33
2023-05-24T02:53:43.830Z,18.41
2023-05-24T02:56:11.795Z,18.44
2023-05-24T02:58:40.979Z,18.29
2023-05-24T03:01:08.921Z,18.35
2023-05-24T03:03:36.414Z,18.18
2023-05-24T03:06:03.927Z,18.21
2023-05-24T03:08:31.509Z,18.35
2023-05-24T03:10:58.960Z,18.33
2023-05-24T03:13:26.256Z,18.27
2023-05-24T03:15:53.517Z,18.36
2023-05-24T03:18:20.962Z,18.39
2023-05-24T03:20:51.625Z,18.37
2023-05-24T03:23:19.149Z,18.41
2023-05-24T03:25:46.703Z,18.15
2023-05-24T03:28:15.747Z,18.24
2023-05-24T03:30:45.579Z,18.18
2023-05-24T03:33:13.147Z,18.13
2023-05-24T03:35:40.741Z,18.19
2023-05-24T03:38:08.229Z,18.26
2023-05-24T03:40:35.880Z,18.25
2023-05-24T03:43:04.470Z,18.34
2023-05-24T03:45:38.998Z,18.32
2023-05-24T03:48:10.010Z,18.48
2023-05-24T03:50:37.583Z,18.37
2023-05-24T03:53:05.337Z,18.38
2023-05-24T03:55:43.538Z,18.30
2023-05-24T03:59:10.800Z,18.50
2023-05-24T04:01:40.685Z,18.27
2023-05-24T04:04:08.089Z,18.32
2023-05-24T04:06:37.053Z,18.18
2023-05-24T04:09:08.693Z,18.13
2023-05-24T04:11:36.514Z,18.31
2023-05-24T04:14:07.492Z,18.09
2023-05-24T04:16:35.832Z,18.15
2023-05-24T04:19:06.259Z,18.21
2023-05-24T04:21:35.449Z,18.19
2023-05-24T04:24:05.033Z,18.31
2023-05-24T04:26:35.640Z,18.32
2023-05-24T04:29:06.725Z,18.32
2023-05-24T04:32:34.584Z,18.49
2023-05-24T04:35:05.910Z,18.37
2023-05-24T04:37:35.009Z,18.20
2023-05-24T04:40:07.100Z,18.42
2023-05-24T04:42:36.259Z,18.25
2023-05-24T04:45:04.477Z,18.37
2023-05-24T04:47:33.388Z,18.52
2023-05-24T04:50:02.951Z,18.74
2023-05-24T04:52:36.804Z,18.86
2023-05-24T04:55:07.701Z,19.13
2023-05-24T04:57:36.338Z,19.21
2023-05-24T05:00:11.479Z,19.25
2023-05-24T05:02:39.426Z,19.56
2023-05-24T05:05:10.828Z,19.66
2023-05-24T05:07:43.505Z,19.90
2023-05-24T05:10:11.619Z,20.04
2023-05-24T05:12:39.306Z,20.00
2023-05-24T05:15:08.065Z,19.98
2023-05-24T05:17:35.703Z,20.18
2023-05-24T05:20:05.042Z,20.25
2023-05-24T05:22:32.803Z,20.23
2023-05-24T05:25:04.347Z,20.09
2023-05-24T05:28:02.796Z,20.35
2023-05-24T05:30:30.451Z,20.37
2023-05-24T05:32:58.437Z,20.20
2023-05-24T05:35:27.983Z,20.05
2023-05-24T05:37:55.534Z,20.14
2023-05-24T05:40:25.164Z,20.06
2023-05-24T05:42:52.844Z,19.76
2023-05-24T05:45:20.253Z,19.49
2023-05-24T05:47:51.244Z,19.49
2023-05-24T05:50:39.197Z,19.67
2023-05-24T05:53:06.931Z,19.75
2023-05-24T05:55:34.530Z,19.72
2023-05-24T05:58:02.002Z,19.94
2023-05-24T06:00:38.718Z,20.07
2023-05-24T06:03:06.650Z,20.18
2023-05-24T06:05:34.250Z,20.17
2023-05-24T06:08:01.813Z,20.33
2023-05-24T06:10:29.458Z,20.19
2023-05-24T06:12:57.240Z,20.19
2023-05-24T06:15:24.973Z,20.06
2023-05-24T06:18:13.904Z,20.31
2023-05-24T06:20:41.745Z,20.36
2023-05-24T06:26:18.588Z,20.15
2023-05-24T06:32:12.627Z,20.48
2023-05-24T06:39:07.137Z,20.87
2023-05-24T06:48:35.621Z,20.97
2023-05-24T06:51:11.315Z,20.87
2023-05-24T06:53:43.189Z,20.64
2023-05-24T06:56:11.349Z,20.75
2023-05-24T06:59:18.565Z,20.87
2023-05-24T07:02:03.432Z,20.84
2023-05-24T07:05:07.367Z,21.11
2023-05-24T07:16:08.255Z,21.15
2023-05-24T07:31:42.386Z,21.17
2023-05-24T07:34:14.599Z,21.23
2023-05-24T07:40:03.377Z,21.18
2023-05-24T07:42:36.359Z,21.20
2023-05-24T07:45:14.774Z,21.56
2023-05-24T07:47:50.351Z,21.87
2023-05-24T07:50:24.973Z,22.26
2023-05-24T07:52:53.650Z,22.57
2023-05-24T07:55:33.415Z,22.74
2023-05-24T07:58:06.989Z,23.05
2023-05-24T08:00:42.424Z,23.31
2023-05-24T08:03:27.475Z,23.79
2023-05-24T08:06:09.302Z,23.96
2023-05-24T08:11:48.650Z,23.75
2023-05-24T08:14:27.572Z,23.42
2023-05-24T08:16:58.527Z,23.69
2023-05-24T08:19:41.542Z,23.98
2023-05-24T08:22:32.536Z,24.28
2023-05-24T08:25:15.365Z,24.73
2023-05-24T08:27:49.813Z,24.98
2023-05-24T08:30:27.793Z,26.42
2023-05-24T08:33:02.760Z,28.32
2023-05-24T08:39:07.023Z,33.22
2023-05-24T08:42:07.301Z,34.73
2023-05-24T08:48:54.239Z,37.75
2023-05-24T08:51:26.006Z,37.94
2023-05-24T08:53:59.367Z,39.36
2023-05-24T08:56:31.356Z,37.77
2023-05-24T08:59:02.289Z,35.54
2023-05-24T09:15:17.038Z,32.36
2023-05-24T09:20:50.007Z,31.23
2023-05-24T09:23:30.482Z,29.62
2023-05-24T09:26:14.007Z,27.76
2023-05-24T09:29:03.339Z,26.88
2023-05-24T09:31:39.786Z,26.37
2023-05-24T09:34:33.403Z,26.04
2023-05-24T09:37:08.656Z,25.38
2023-05-24T09:39:54.219Z,24.83
2023-05-24T09:42:32.399Z,24.65
2023-05-24T09:45:15.710Z,24.76
2023-05-24T09:48:04.746Z,24.53
2023-05-24T09:54:15.946Z,25.14
2023-05-24T09:56:50.568Z,25.15
2023-05-24T09:59:21.360Z,26.61
2023-05-24T10:01:57.756Z,27.04
2023-05-24T10:04:36.586Z,27.43
2023-05-24T10:07:04.842Z,27.29
2023-05-24T10:09:40.959Z,26.99
2023-05-24T10:12:34.391Z,26.40
2023-05-24T10:15:33.720Z,25.66
2023-05-24T10:18:12.966Z,25.31
2023-05-24T10:20:45.137Z,24.84
2023-05-24T10:24:13.891Z,24.72
2023-05-24T10:26:44.714Z,24.35
2023-05-24T10:29:44.064Z,24.25
2023-05-24T10:35:45.229Z,24.25
2023-05-24T10:39:00.465Z,24.28
2023-05-24T10:41:29.997Z,24.82
2023-05-24T10:44:08.460Z,24.87
2023-05-24T10:47:13.557Z,25.50
2023-05-24T10:49:53.733Z,25.28
2023-05-24T10:52:48.314Z,24.95
2023-05-24T10:55:22.622Z,24.95
2023-05-24T10:58:00.400Z,24.96
2023-05-24T11:03:51.076Z,24.63
2023-05-24T11:06:19.399Z,24.50
2023-05-24T11:08:46.885Z,24.47
2023-05-24T11:11:29.444Z,24.43
2023-05-24T11:14:04.539Z,24.82
2023-05-24T11:16:39.551Z,25.06
2023-05-24T11:22:48.498Z,25.58
2023-05-24T11:25:16.582Z,25.43
2023-05-24T11:27:48.779Z,25.18
2023-05-24T11:30:20.516Z,25.25
2023-05-24T11:32:58.893Z,24.77
2023-05-24T11:35:30.584Z,24.82
2023-05-24T11:38:01.698Z,24.98
2023-05-24T11:40:31.802Z,24.96
2023-05-24T11:43:07.896Z,24.82
2023-05-24T11:45:46.987Z,24.92
2023-05-24T11:48:20.886Z,25.04
2023-05-24T11:51:18.187Z,24.97
2023-05-24T11:53:47.731Z,25.48
2023-05-24T11:56:30.940Z,26.11
2023-05-24T12:03:13.047Z,27.45
2023-05-24T12:09:41.125Z,30.49
2023-05-24T12:12:45.665Z,30.56
2023-05-24T12:22:00.615Z,28.97
2023-05-24T12:24:36.532Z,29.30
2023-05-24T12:27:12.196Z,29.12
2023-05-24T12:29:45.922Z,28.50
2023-05-24T12:36:37.515Z,29.59
2023-05-24T12:39:31.812Z,29.96
2023-05-24T12:42:30.265Z,28.89
2023-05-24T12:47:56.095Z,27.08
2023-05-24T12:50:26.215Z,26.42
2023-05-24T12:52:54.449Z,25.54
2023-05-24T12:55:41.775Z,24.80
2023-05-24T12:58:17.180Z,24.46
2023-05-24T13:00:50.577Z,24.39
2023-05-24T13:03:18.894Z,23.98
2023-05-24T13:05:47.608Z,23.85
2023-05-24T13:08:19.729Z,23.66
2023-05-24T13:14:55.923Z,23.33
2023-05-24T13:17:26.886Z,23.21
2023-05-24T13:19:58.986Z,23.00
2023-05-24T13:22:27.398Z,22.94
2023-05-24T13:25:58.210Z,22.81
2023-05-24T13:28:25.931Z,22.95
2023-05-24T13:30:53.917Z,22.81
2023-05-24T13:33:23.839Z,23.14
2023-05-24T13:35:59.478Z,23.31
2023-05-24T13:38:37.622Z,23.46
2023-05-24T13:44:52.722Z,23.68
2023-05-24T15:57:54.764Z,21.11
2023-05-24T20:58:42.158Z,18.12
2023-05-24T21:01:13.056Z,18.17
2023-05-24T21:03:40.956Z,18.14
2023-05-24T21:06:49.972Z,18.03
2023-05-24T21:13:02.038Z,18.04
2023-05-24T21:15:30.108Z,18.14
2023-05-24T21:18:01.891Z,18.18
2023-05-24T21:20:36.650Z,17.95
2023-05-24T21:23:08.757Z,17.90
2023-05-24T21:25:37.039Z,17.84
2023-05-24T21:28:10.226Z,17.30
2023-05-24T21:31:05.676Z,17.20
2023-05-24T21:33:34.435Z,16.26
2023-05-24T21:40:15.038Z,15.88
2023-05-24T21:42:45.960Z,15.74
2023-05-24T21:45:13.690Z,15.65
2023-05-24T21:47:42.423Z,15.73
2023-05-24T21:53:35.991Z,16.04
2023-05-24T21:56:10.082Z,16.35
2023-05-24T22:01:41.098Z,16.58
2023-05-24T22:04:45.286Z,16.84
2023-05-24T22:08:31.115Z,16.80
2023-05-24T22:11:46.456Z,17.09
2023-05-24T22:15:36.884Z,17.14
2023-05-24T22:29:04.134Z,17.04
2023-05-24T22:31:49.630Z,16.97
2023-05-24T22:34:35.125Z,17.03
2023-05-24T22:37:33.196Z,17.07
2023-05-24T22:40:21.577Z,17.16
2023-05-24T22:46:11.831Z,17.29
2023-05-24T22:49:18.889Z,17.27
2023-05-24T22:51:51.688Z,17.11
2023-05-24T23:06:40.521Z,17.16
2023-05-24T23:09:13.073Z,17.12
2023-05-24T23:26:14.592Z,17.37
2023-05-24T23:43:36.889Z,17.32
2023-05-24T23:50:22.266Z,17.21
2023-05-24T23:56:29.922Z,17.58
2023-05-24T23:59:09.149Z,17.37
